Time;durP1;ratioP1;P1;durP2;ratioP2;P2;SDS_P1;SDS_P2;PMS_P1;PMS_P2;Temp;Humidity;BMP_temperature;BMP_pressure;BME280_temperature;BME280_humidity;BME280_pressure;Samples;Min_cycle;Max_cycle;Signal;HPM_P1;HPM_P2
2023/10/20 00:04:27;;;;;;;5.47;2.05;;;;;;;;;;10407536;28;20033;-66
2023/10/20 00:09:29;;;;;;;2.30;2.00;;;;;;;;;;10403167;28;20052;-66
2023/10/20 00:14:29;;;;;;;4.78;1.88;;;;;;;;;;10406425;28;20029;-66
2023/10/20 00:19:30;;;;;;;1.75;1.35;;;;;;;;;;10404007;28;20030;-66
2023/10/20 00:24:30;;;;;;;3.83;1.88;;;;;;;;;;10405933;28;20034;-66
2023/10/20 00:29:31;;;;;;;5.72;1.88;;;;;;;;;;10407339;28;20063;-66
2023/10/20 00:34:32;;;;;;;3.30;1.77;;;;;;;;;;10403774;28;20033;-66
2023/10/20 00:39:34;;;;;;;5.07;2.05;;;;;;;;;;10401497;28;20041;-66
2023/10/20 00:44:35;;;;;;;3.00;1.77;;;;;;;;;;10407770;28;20053;-66
2023/10/20 00:49:37;;;;;;;2.83;1.50;;;;;;;;;;10409427;28;20030;-66
2023/10/20 00:54:37;;;;;;;2.00;1.50;;;;;;;;;;10426082;28;20060;-66
2023/10/20 00:59:38;;;;;;;3.58;1.92;;;;;;;;;;10427179;28;20029;-66
2023/10/20 01:04:39;;;;;;;3.90;1.95;;;;;;;;;;10410649;28;20036;-67
2023/10/20 01:09:43;;;;;;;1.75;1.58;;;;;;;;;;10413113;28;20059;-67
2023/10/20 01:14:43;;;;;;;7.97;1.90;;;;;;;;;;10411230;28;20060;-67
2023/10/20 01:19:44;;;;;;;4.32;1.88;;;;;;;;;;10409895;28;20080;-66
2023/10/20 01:24:45;;;;;;;5.15;1.85;;;;;;;;;;10411214;28;20046;-65
2023/10/20 01:29:45;;;;;;;3.28;1.80;;;;;;;;;;10401509;28;20087;-65
2023/10/20 01:34:46;;;;;;;2.80;1.63;;;;;;;;;;10399585;28;20503;-66
2023/10/20 01:39:47;;;;;;;2.67;1.83;;;;;;;;;;10410759;28;20041;-66
2023/10/20 01:44:47;;;;;;;3.50;1.60;;;;;;;;;;10404755;28;20044;-66
2023/10/20 01:49:48;;;;;;;4.95;1.90;;;;;;;;;;10419524;28;20039;-66
2023/10/20 01:54:49;;;;;;;3.80;1.70;;;;;;;;;;10409469;28;20033;-65
2023/10/20 01:59:50;;;;;;;2.67;1.60;;;;;;;;;;10409279;28;20505;-66
2023/10/20 02:04:50;;;;;;;3.67;1.65;;;;;;;;;;10412309;28;20033;-67
2023/10/20 02:09:51;;;;;;;2.63;1.45;;;;;;;;;;10410875;28;20041;-67
2023/10/20 02:14:52;;;;;;;1.92;1.33;;;;;;;;;;10409757;28;20030;-66
2023/10/20 02:19:53;;;;;;;4.78;1.90;;;;;;;;;;10410178;28;20030;-66
2023/10/20 02:24:53;;;;;;;4.13;1.50;;;;;;;;;;10407933;28;20409;-66
2023/10/20 02:29:56;;;;;;;3.20;1.50;;;;;;;;;;10407648;28;20400;-66
2023/10/20 02:34:56;;;;;;;2.90;1.75;;;;;;;;;;10426717;28;20029;-66
2023/10/20 02:39:57;;;;;;;3.22;1.50;;;;;;;;;;10401328;28;21656;-66
2023/10/20 02:44:58;;;;;;;2.80;1.60;;;;;;;;;;10407916;28;20041;-65
2023/10/20 02:49:59;;;;;;;3.20;1.42;;;;;;;;;;10409281;28;20044;-65
2023/10/20 02:54:59;;;;;;;2.50;1.65;;;;;;;;;;10412129;28;20035;-64
2023/10/20 03:00:00;;;;;;;2.30;1.38;;;;;;;;;;10405880;28;20033;-68
2023/10/20 03:05:00;;;;;;;1.85;1.35;;;;;;;;;;10407671;28;20064;-66
2023/10/20 03:10:01;;;;;;;3.20;1.60;;;;;;;;;;10414385;28;20041;-66
2023/10/20 03:15:03;;;;;;;4.28;1.40;;;;;;;;;;10406720;28;20347;-66
2023/10/20 03:20:08;;;;;;;2.70;1.65;;;;;;;;;;10404515;28;20033;-66
2023/10/20 03:25:10;;;;;;;2.00;1.42;;;;;;;;;;10407429;28;20468;-63
2023/10/20 03:30:10;;;;;;;2.00;1.42;;;;;;;;;;10403347;28;20040;-65
2023/10/20 03:35:12;;;;;;;2.25;1.35;;;;;;;;;;10415447;28;20048;-63
2023/10/20 03:40:16;;;;;;;3.08;1.60;;;;;;;;;;10402028;28;20042;-66
2023/10/20 03:45:16;;;;;;;11.13;1.60;;;;;;;;;;10408405;28;20029;-66
2023/10/20 03:50:17;;;;;;;4.30;1.70;;;;;;;;;;10413710;28;20036;-66
2023/10/20 03:55:18;;;;;;;4.60;1.38;;;;;;;;;;10409443;28;20547;-67
2023/10/20 04:00:23;;;;;;;3.65;1.58;;;;;;;;;;10410622;28;20025;-66
2023/10/20 04:05:27;;;;;;;;;;;;;;;;;;10409055;28;20029;-66
2023/10/20 04:10:27;;;;;;;2.67;1.27;;;;;;;;;;10405726;28;20012;-67
2023/10/20 04:15:32;;;;;;;2.95;1.30;;;;;;;;;;10409408;28;20492;-67
2023/10/20 04:20:40;;;;;;;3.15;1.52;;;;;;;;;;10404616;28;20550;-66
2023/10/20 04:25:49;;;;;;;1.40;1.30;;;;;;;;;;10417889;28;20021;-66
2023/10/20 05:02:39;;;;;;;2.13;1.25;;;;;;;;;;10404801;28;20413;-64
2023/10/20 05:07:49;;;;;;;1.40;1.10;;;;;;;;;;10420080;28;20021;-64
2023/10/20 05:12:50;;;;;;;4.35;1.65;;;;;;;;;;10414985;28;20037;-64
2023/10/20 05:17:52;;;;;;;4.20;1.50;;;;;;;;;;10413921;28;20029;-65
2023/10/20 05:22:52;;;;;;;2.53;1.33;;;;;;;;;;10423280;28;20538;-64
2023/10/20 05:27:54;;;;;;;3.58;1.33;;;;;;;;;;10421723;28;20034;-65
2023/10/20 05:32:55;;;;;;;2.13;1.20;;;;;;;;;;10418993;28;20033;-67
2023/10/20 05:37:55;;;;;;;1.90;1.30;;;;;;;;;;10417768;28;20049;-67
2023/10/20 05:42:56;;;;;;;1.20;1.10;;;;;;;;;;10413357;28;20045;-67
2023/10/20 05:47:57;;;;;;;1.85;1.10;;;;;;;;;;10412119;28;20032;-67
2023/10/20 05:52:57;;;;;;;1.63;1.10;;;;;;;;;;10415346;28;20022;-67
2023/10/20 05:57:58;;;;;;;3.85;1.40;;;;;;;;;;10409606;28;20523;-67
2023/10/20 06:02:59;;;;;;;1.80;1.30;;;;;;;;;;10383667;28;20026;-66
2023/10/20 06:08:00;;;;;;;1.00;0.90;;;;;;;;;;10389268;28;20079;-67
2023/10/20 06:13:00;;;;;;;4.20;1.33;;;;;;;;;;10401313;28;20034;-67
2023/10/20 06:18:01;;;;;;;1.45;1.23;;;;;;;;;;10431174;28;20041;-67
2023/10/20 06:23:02;;;;;;;2.17;1.45;;;;;;;;;;10405952;28;20033;-66
2023/10/20 06:28:04;;;;;;;2.28;1.30;;;;;;;;;;10407672;28;20040;-67
2023/10/20 06:33:16;;;;;;;2.28;1.10;;;;;;;;;;10410086;28;20022;-66
2023/10/20 06:38:30;;;;;;;1.95;1.15;;;;;;;;;;10408755;28;20073;-66
2023/10/20 06:43:30;;;;;;;6.20;1.30;;;;;;;;;;10409847;28;20515;-66
2023/10/20 06:48:31;;;;;;;1.05;0.95;;;;;;;;;;10412192;28;20033;-65
2023/10/20 06:53:31;;;;;;;1.38;1.10;;;;;;;;;;10406934;28;20049;-65
2023/10/20 06:58:32;;;;;;;1.25;1.15;;;;;;;;;;10415530;28;20033;-66
2023/10/20 07:03:33;;;;;;;1.45;1.35;;;;;;;;;;10395136;28;20052;-66
2023/10/20 07:08:34;;;;;;;6.78;1.95;;;;;;;;;;10386114;28;20048;-69
2023/10/20 07:13:35;;;;;;;7.00;2.05;;;;;;;;;;10405740;28;20506;-67
2023/10/20 07:18:36;;;;;;;7.15;2.50;;;;;;;;;;10405803;28;20021;-67
2023/10/20 07:23:37;;;;;;;4.78;2.17;;;;;;;;;;10405931;28;20042;-70
2023/10/20 07:28:37;;;;;;;7.22;2.55;;;;;;;;;;10404919;28;20162;-70
2023/10/20 07:33:38;;;;;;;4.78;2.13;;;;;;;;;;10406407;28;20076;-70
2023/10/20 07:38:39;;;;;;;8.07;2.65;;;;;;;;;;10402293;28;20064;-69
2023/10/20 07:43:40;;;;;;;5.75;2.50;;;;;;;;;;10402972;28;20040;-70
2023/10/20 07:48:41;;;;;;;11.82;2.90;;;;;;;;;;10401504;28;20025;-69
2023/10/20 07:53:42;;;;;;;8.43;2.90;;;;;;;;;;10413852;28;20543;-70
2023/10/20 07:58:43;;;;;;;3.53;2.78;;;;;;;;;;10414219;28;20025;-68
2023/10/20 08:03:47;;;;;;;5.95;2.53;;;;;;;;;;10406769;28;20540;-70
2023/10/20 08:08:48;;;;;;;7.88;3.25;;;;;;;;;;10413766;28;20116;-70
2023/10/20 08:13:51;;;;;;;33.00;5.18;;;;;;;;;;10404867;28;20026;-70
2023/10/20 08:18:51;;;;;;;22.10;4.55;;;;;;;;;;10409559;28;20489;-62
2023/10/20 08:23:52;;;;;;;28.38;4.70;;;;;;;;;;10410613;28;20033;-64
2023/10/20 08:28:53;;;;;;;16.75;3.72;;;;;;;;;;10413707;28;20037;-64
2023/10/20 08:33:54;;;;;;;13.35;3.25;;;;;;;;;;10394997;28;20055;-66
2023/10/20 08:38:55;;;;;;;21.33;3.05;;;;;;;;;;10410251;28;20515;-63
2023/10/20 08:43:56;;;;;;;17.25;2.88;;;;;;;;;;10413600;28;20030;-66
2023/10/20 08:48:57;;;;;;;19.25;3.60;;;;;;;;;;10418973;28;20037;-65
2023/10/20 08:53:58;;;;;;;15.45;3.08;;;;;;;;;;10417200;28;20040;-65
2023/10/20 08:58:59;;;;;;;9.73;3.33;;;;;;;;;;10410413;28;20140;-64
2023/10/20 09:04:00;;;;;;;17.50;3.63;;;;;;;;;;10401674;28;20087;-64
2023/10/20 09:09:05;;;;;;;14.45;3.45;;;;;;;;;;10408240;28;20064;-66
2023/10/20 09:14:06;;;;;;;6.82;2.45;;;;;;;;;;10388915;28;20040;-66
2023/10/20 09:19:11;;;;;;;8.07;2.55;;;;;;;;;;10390949;28;20044;-64
2023/10/20 09:24:14;;;;;;;10.05;2.53;;;;;;;;;;10399451;28;20056;-64
2023/10/20 09:29:15;;;;;;;11.25;2.30;;;;;;;;;;10401990;28;20021;-64
2023/10/20 09:34:16;;;;;;;6.15;1.85;;;;;;;;;;10396577;28;20663;-65
2023/10/20 09:39:26;;;;;;;5.85;2.05;;;;;;;;;;10401340;28;20408;-64
2023/10/20 09:44:43;;;;;;;7.85;2.50;;;;;;;;;;10407769;28;20553;-65
2023/10/20 09:49:44;;;;;;;5.83;1.70;;;;;;;;;;10405640;28;20033;-63
2023/10/20 09:54:50;;;;;;;4.45;1.70;;;;;;;;;;10410361;28;20049;-64
2023/10/20 09:59:55;;;;;;;8.07;2.05;;;;;;;;;;10391970;28;20112;-64
2023/10/20 10:05:00;;;;;;;6.88;1.88;;;;;;;;;;10402367;28;20029;-64
2023/10/20 10:10:01;;;;;;;7.10;2.00;;;;;;;;;;10401923;28;20033;-63
2023/10/20 10:15:12;;;;;;;8.77;2.13;;;;;;;;;;10413329;28;20033;-64
2023/10/20 10:20:26;;;;;;;5.57;1.92;;;;;;;;;;10412537;28;20034;-63
2023/10/20 10:25:35;;;;;;;7.53;2.03;;;;;;;;;;10413564;28;20116;-65
2023/10/20 10:30:38;;;;;;;3.58;1.88;;;;;;;;;;10406322;28;20525;-63
2023/10/20 10:35:40;;;;;;;6.18;2.60;;;;;;;;;;10409090;28;20511;-65
2023/10/20 10:40:45;;;;;;;5.55;1.50;;;;;;;;;;10386333;28;20131;-64
2023/10/20 10:45:54;;;;;;;4.78;1.90;;;;;;;;;;10386498;28;20033;-64
2023/10/20 10:50:55;;;;;;;5.40;1.67;;;;;;;;;;10394731;28;20030;-63
2023/10/20 10:55:56;;;;;;;6.90;2.28;;;;;;;;;;10410170;28;20468;-63
2023/10/20 11:00:56;;;;;;;5.32;1.80;;;;;;;;;;10399745;28;20108;-63
2023/10/20 11:05:58;;;;;;;6.05;2.45;;;;;;;;;;10405713;28;20030;-63
2023/10/20 11:10:59;;;;;;;4.50;2.83;;;;;;;;;;10404546;28;20052;-63
2023/10/20 11:15:59;;;;;;;9.35;3.45;;;;;;;;;;10403397;28;20025;-65
2023/10/20 11:21:00;;;;;;;8.23;3.70;;;;;;;;;;10408634;28;20767;-65
2023/10/20 11:26:01;;;;;;;13.50;4.43;;;;;;;;;;10408933;28;20040;-64
2023/10/20 11:31:02;;;;;;;9.57;5.15;;;;;;;;;;10416635;28;20040;-65
2023/10/20 11:36:04;;;;;;;8.90;5.32;;;;;;;;;;10400116;28;20028;-66
2023/10/20 11:41:05;;;;;;;6.95;4.93;;;;;;;;;;10392092;28;20067;-66
2023/10/20 11:46:06;;;;;;;11.38;5.95;;;;;;;;;;10403398;28;20088;-66
2023/10/20 11:51:08;;;;;;;9.10;5.05;;;;;;;;;;10397202;28;20404;-66
2023/10/20 11:56:10;;;;;;;12.82;5.13;;;;;;;;;;10397562;28;20538;-64
2023/10/20 12:01:11;;;;;;;8.90;4.60;;;;;;;;;;10385709;28;20025;-65
2023/10/20 12:06:11;;;;;;;12.10;4.75;;;;;;;;;;10402674;28;20111;-65
2023/10/20 12:11:13;;;;;;;10.55;5.00;;;;;;;;;;10394944;28;20045;-64
2023/10/20 12:16:19;;;;;;;10.60;5.15;;;;;;;;;;10386815;28;20025;-65
2023/10/20 12:21:19;;;;;;;9.07;4.50;;;;;;;;;;10403998;28;20067;-64
2023/10/20 12:26:20;;;;;;;8.85;4.25;;;;;;;;;;10316592;28;20042;-64
2023/10/20 12:31:22;;;;;;;13.98;5.32;;;;;;;;;;10363152;28;20042;-64
2023/10/20 12:36:22;;;;;;;9.93;4.63;;;;;;;;;;10362896;28;20029;-64
2023/10/20 12:41:23;;;;;;;8.23;5.03;;;;;;;;;;10367870;28;20054;-64
2023/10/20 12:46:24;;;;;;;9.68;4.43;;;;;;;;;;10339846;28;68158;-64
2023/10/20 12:51:24;;;;;;;13.63;3.78;;;;;;;;;;10330110;28;20053;-62
2023/10/20 12:56:26;;;;;;;17.85;4.68;;;;;;;;;;10368144;28;21308;-65
2023/10/20 13:01:27;;;;;;;25.77;4.47;;;;;;;;;;10360822;28;20129;-64
2023/10/20 13:06:28;;;;;;;5.22;3.50;;;;;;;;;;10366943;28;20026;-64
2023/10/20 13:11:28;;;;;;;10.57;4.13;;;;;;;;;;10370020;28;20029;-64
2023/10/20 13:16:29;;;;;;;9.40;4.00;;;;;;;;;;10369392;28;20033;-64
2023/10/20 13:21:31;;;;;;;16.20;3.95;;;;;;;;;;10367189;28;20029;-64
2023/10/20 13:26:31;;;;;;;11.88;4.65;;;;;;;;;;10368073;28;20026;-64
2023/10/20 13:31:33;;;;;;;9.80;4.10;;;;;;;;;;10356817;28;20096;-63
2023/10/20 13:36:34;;;;;;;10.48;4.10;;;;;;;;;;10344446;28;20048;-63
2023/10/20 13:41:35;;;;;;;16.63;3.65;;;;;;;;;;10350463;28;20474;-63
2023/10/20 13:46:36;;;;;;;9.95;4.25;;;;;;;;;;10327886;28;20038;-64
2023/10/20 13:51:36;;;;;;;14.65;4.15;;;;;;;;;;10345568;28;20087;-66
2023/10/20 13:56:37;;;;;;;8.77;3.97;;;;;;;;;;10351763;28;20038;-64
2023/10/20 14:01:38;;;;;;;14.75;4.40;;;;;;;;;;10338014;28;20046;-66
2023/10/20 14:06:39;;;;;;;8.52;4.00;;;;;;;;;;10346623;28;20034;-66
2023/10/20 14:11:40;;;;;;;12.88;4.30;;;;;;;;;;10341322;28;20056;-65
2023/10/20 14:16:41;;;;;;;12.52;4.00;;;;;;;;;;10323598;28;20023;-65
2023/10/20 14:21:42;;;;;;;11.60;4.20;;;;;;;;;;10340857;28;20045;-65
2023/10/20 14:26:43;;;;;;;7.30;3.90;;;;;;;;;;10344638;28;20122;-65
2023/10/20 14:31:43;;;;;;;12.73;4.07;;;;;;;;;;10345474;28;20388;-64
2023/10/20 14:36:44;;;;;;;9.38;3.58;;;;;;;;;;10342520;28;21129;-65
2023/10/20 14:41:45;;;;;;;13.77;4.38;;;;;;;;;;10340717;28;20056;-63
2023/10/20 14:46:45;;;;;;;8.18;3.47;;;;;;;;;;10340409;28;20035;-66
2023/10/20 14:51:46;;;;;;;11.48;3.33;;;;;;;;;;10347376;28;20026;-65
2023/10/20 14:56:47;;;;;;;14.95;3.78;;;;;;;;;;10358565;28;20029;-65
2023/10/20 15:01:48;;;;;;;11.32;3.72;;;;;;;;;;10335420;28;20042;-66
2023/10/20 15:06:48;;;;;;;10.07;3.90;;;;;;;;;;10349206;28;20029;-65
2023/10/20 15:11:49;;;;;;;9.70;3.92;;;;;;;;;;10341684;28;20038;-65
2023/10/20 15:16:50;;;;;;;11.55;3.83;;;;;;;;;;10347928;28;20109;-65
2023/10/20 15:21:52;;;;;;;17.20;3.83;;;;;;;;;;10351426;28;20089;-65
2023/10/20 15:26:55;;;;;;;15.48;4.88;;;;;;;;;;10356422;28;20049;-64
2023/10/20 15:31:56;;;;;;;19.77;4.78;;;;;;;;;;10361850;28;20029;-66
2023/10/20 15:36:57;;;;;;;22.60;5.95;;;;;;;;;;10352149;28;20053;-64
2023/10/20 15:41:57;;;;;;;21.00;4.85;;;;;;;;;;10347614;28;20137;-66
2023/10/20 15:46:58;;;;;;;21.98;5.20;;;;;;;;;;10344319;28;20541;-67
2023/10/20 15:51:58;;;;;;;13.38;4.55;;;;;;;;;;10352587;28;20397;-64
2023/10/20 15:56:59;;;;;;;22.52;5.55;;;;;;;;;;10351719;28;20038;-65
2023/10/20 16:01:59;;;;;;;15.80;5.05;;;;;;;;;;10344868;28;20040;-65
2023/10/20 16:07:00;;;;;;;13.52;4.40;;;;;;;;;;10345685;28;20049;-66
2023/10/20 16:12:03;;;;;;;13.98;4.68;;;;;;;;;;10342042;28;20026;-67
2023/10/20 16:17:04;;;;;;;19.00;5.78;;;;;;;;;;10356649;28;20056;-65
2023/10/20 16:22:05;;;;;;;14.07;4.68;;;;;;;;;;10352715;28;20125;-64
2023/10/20 16:27:06;;;;;;;14.27;4.78;;;;;;;;;;10344407;28;20022;-64
2023/10/20 16:32:07;;;;;;;17.50;4.78;;;;;;;;;;10342349;28;20037;-65
2023/10/20 16:37:07;;;;;;;16.95;4.68;;;;;;;;;;10337374;28;20047;-64
2023/10/20 16:42:08;;;;;;;13.18;3.97;;;;;;;;;;10339956;28;20108;-63
2023/10/20 16:47:09;;;;;;;14.77;4.43;;;;;;;;;;10351254;28;20029;-64
2023/10/20 16:52:09;;;;;;;12.65;4.78;;;;;;;;;;10367522;28;20022;-63
2023/10/20 16:57:10;;;;;;;16.83;4.90;;;;;;;;;;10364610;28;20026;-64
2023/10/20 17:02:11;;;;;;;12.95;4.65;;;;;;;;;;10369966;28;20068;-62
2023/10/20 17:07:11;;;;;;;10.10;4.00;;;;;;;;;;10369878;28;20030;-66
2023/10/20 17:12:12;;;;;;;11.70;4.13;;;;;;;;;;10369163;28;20041;-64
2023/10/20 17:17:12;;;;;;;10.95;4.18;;;;;;;;;;10367803;28;20026;-64
2023/10/20 17:22:13;;;;;;;13.35;4.60;;;;;;;;;;10371686;28;20037;-64
2023/10/20 17:27:13;;;;;;;12.48;4.50;;;;;;;;;;10369490;28;20481;-64
2023/10/20 17:32:15;;;;;;;9.98;4.05;;;;;;;;;;10368512;28;20448;-63
2023/10/20 17:37:16;;;;;;;13.63;4.47;;;;;;;;;;10370356;28;20100;-65
2023/10/20 17:42:16;;;;;;;9.60;4.50;;;;;;;;;;10372581;28;20547;-64
2023/10/20 17:47:17;;;;;;;8.13;3.92;;;;;;;;;;10368525;28;20036;-64
2023/10/20 17:52:18;;;;;;;11.95;4.38;;;;;;;;;;10367651;28;20034;-64
2023/10/20 17:57:19;;;;;;;10.45;3.95;;;;;;;;;;10359652;28;20086;-64
2023/10/20 18:02:19;;;;;;;8.10;4.32;;;;;;;;;;10365148;28;20131;-64
2023/10/20 18:07:20;;;;;;;15.23;5.00;;;;;;;;;;10346274;28;20033;-64
2023/10/20 18:12:21;;;;;;;11.90;4.50;;;;;;;;;;10338337;28;20037;-64
2023/10/20 18:17:21;;;;;;;9.63;4.65;;;;;;;;;;10345460;28;20029;-64
2023/10/20 18:22:22;;;;;;;12.45;4.38;;;;;;;;;;10341464;28;20473;-64
2023/10/20 18:27:22;;;;;;;11.98;4.43;;;;;;;;;;10336852;28;20037;-64
2023/10/20 18:32:24;;;;;;;13.25;5.38;;;;;;;;;;10340777;28;20046;-64
2023/10/20 18:37:26;;;;;;;12.20;4.93;;;;;;;;;;10349438;28;20041;-64
2023/10/20 18:42:28;;;;;;;10.55;4.80;;;;;;;;;;10362550;28;20511;-64
2023/10/20 18:47:28;;;;;;;11.93;5.18;;;;;;;;;;10353300;28;20044;-64
2023/10/20 18:52:30;;;;;;;11.38;5.13;;;;;;;;;;10349634;28;20046;-64
2023/10/20 18:57:30;;;;;;;8.23;4.57;;;;;;;;;;10358555;28;20108;-63
2023/10/20 19:02:31;;;;;;;8.63;4.75;;;;;;;;;;10361878;28;20037;-63
2023/10/20 19:07:32;;;;;;;6.53;4.40;;;;;;;;;;10350035;28;20018;-63
2023/10/20 19:12:33;;;;;;;9.38;4.85;;;;;;;;;;10365567;28;20084;-63
2023/10/20 19:17:33;;;;;;;10.02;4.35;;;;;;;;;;10348353;28;20072;-63
2023/10/20 19:22:34;;;;;;;14.20;4.80;;;;;;;;;;10367477;28;20042;-62
2023/10/20 19:27:35;;;;;;;10.57;5.10;;;;;;;;;;10363833;28;20041;-64
2023/10/20 19:32:35;;;;;;;10.25;4.43;;;;;;;;;;10359132;28;20125;-62
2023/10/20 19:37:36;;;;;;;8.25;4.10;;;;;;;;;;10365165;28;20046;-63
2023/10/20 19:42:37;;;;;;;13.30;4.70;;;;;;;;;;10365517;28;20083;-63
2023/10/20 19:47:38;;;;;;;7.70;4.05;;;;;;;;;;10359866;28;20083;-63
2023/10/20 19:52:39;;;;;;;10.50;4.13;;;;;;;;;;10372887;28;20080;-64
2023/10/20 19:57:40;;;;;;;9.52;4.43;;;;;;;;;;10367733;28;20029;-64
2023/10/20 20:02:40;;;;;;;14.32;5.38;;;;;;;;;;10364904;28;20034;-66
2023/10/20 20:07:41;;;;;;;11.82;5.55;;;;;;;;;;10364112;28;20033;-66
2023/10/20 20:12:43;;;;;;;19.67;5.20;;;;;;;;;;10357327;28;20029;-64
2023/10/20 20:17:43;;;;;;;11.25;5.10;;;;;;;;;;10361727;28;20037;-65
2023/10/20 20:22:44;;;;;;;14.50;5.05;;;;;;;;;;10363988;28;20037;-65
2023/10/20 20:27:44;;;;;;;23.65;5.25;;;;;;;;;;10365178;28;20034;-65
2023/10/20 20:32:45;;;;;;;15.43;5.70;;;;;;;;;;10363313;28;20026;-65
2023/10/20 20:37:46;;;;;;;12.35;4.53;;;;;;;;;;10351255;28;20381;-64
2023/10/20 20:42:47;;;;;;;19.65;4.68;;;;;;;;;;10366844;28;20033;-64
2023/10/20 20:47:48;;;;;;;12.13;4.72;;;;;;;;;;10361768;28;20389;-65
2023/10/20 20:52:48;;;;;;;8.00;4.15;;;;;;;;;;10356783;28;20412;-66
2023/10/20 20:57:49;;;;;;;10.23;4.90;;;;;;;;;;10359405;28;20061;-64
2023/10/20 21:02:50;;;;;;;14.60;4.90;;;;;;;;;;10369112;28;20037;-66
2023/10/20 21:07:50;;;;;;;12.45;4.60;;;;;;;;;;10360624;28;20029;-66
2023/10/20 21:12:51;;;;;;;15.07;4.85;;;;;;;;;;10361820;28;20034;-66
2023/10/20 21:17:51;;;;;;;18.38;5.15;;;;;;;;;;10365524;28;20030;-66
2023/10/20 21:22:53;;;;;;;14.18;5.07;;;;;;;;;;10369314;28;20030;-66
2023/10/20 21:27:54;;;;;;;15.80;5.25;;;;;;;;;;10375317;28;20038;-64
2023/10/20 21:32:55;;;;;;;11.07;4.95;;;;;;;;;;10357862;28;20424;-63
2023/10/20 21:37:55;;;;;;;8.32;4.13;;;;;;;;;;10360603;28;20382;-64
2023/10/20 21:42:56;;;;;;;12.88;4.63;;;;;;;;;;10369663;28;20601;-64
2023/10/20 21:47:56;;;;;;;8.98;4.35;;;;;;;;;;10370541;28;20422;-64
2023/10/20 21:52:57;;;;;;;22.33;4.38;;;;;;;;;;10372818;28;20403;-64
2023/10/20 21:57:58;;;;;;;8.98;4.32;;;;;;;;;;10369568;28;20033;-64
2023/10/20 22:02:58;;;;;;;10.93;4.07;;;;;;;;;;10381900;28;20397;-64
2023/10/20 22:07:59;;;;;;;9.68;3.90;;;;;;;;;;10369455;28;20041;-64
2023/10/20 22:13:00;;;;;;;10.32;4.03;;;;;;;;;;10370300;28;20037;-64
2023/10/20 22:18:00;;;;;;;10.98;4.25;;;;;;;;;;10370657;28;20088;-64
2023/10/20 22:23:01;;;;;;;9.80;4.20;;;;;;;;;;10368104;28;20030;-64
2023/10/20 22:28:02;;;;;;;8.60;4.05;;;;;;;;;;10368430;28;20034;-64
2023/10/20 22:33:03;;;;;;;13.10;3.92;;;;;;;;;;10370828;28;20035;-64
2023/10/20 22:38:03;;;;;;;10.43;3.72;;;;;;;;;;10366421;28;20049;-64
2023/10/20 22:43:04;;;;;;;17.55;4.20;;;;;;;;;;10369694;28;20030;-64
2023/10/20 22:48:05;;;;;;;10.55;3.85;;;;;;;;;;10367597;28;20041;-64
2023/10/20 22:53:05;;;;;;;11.52;3.65;;;;;;;;;;10368693;28;20201;-64
2023/10/20 22:58:06;;;;;;;11.48;3.50;;;;;;;;;;10368443;28;20029;-64
2023/10/20 23:03:07;;;;;;;7.45;3.75;;;;;;;;;;10367177;28;20038;-64
2023/10/20 23:08:09;;;;;;;7.55;3.83;;;;;;;;;;10372820;28;20064;-64
2023/10/20 23:13:10;;;;;;;7.47;3.60;;;;;;;;;;10371665;28;20060;-64
2023/10/20 23:18:11;;;;;;;8.93;3.53;;;;;;;;;;10372474;28;20520;-64
2023/10/20 23:23:11;;;;;;;10.43;3.78;;;;;;;;;;10369800;28;20501;-64
2023/10/20 23:28:12;;;;;;;7.35;3.00;;;;;;;;;;10367341;28;20037;-64
2023/10/20 23:33:14;;;;;;;5.70;3.40;;;;;;;;;;10367423;28;20030;-65
2023/10/20 23:38:14;;;;;;;6.50;3.55;;;;;;;;;;10367408;28;20125;-64
2023/10/20 23:43:15;;;;;;;7.93;3.50;;;;;;;;;;10367538;28;20028;-64
2023/10/20 23:48:16;;;;;;;7.45;3.47;;;;;;;;;;10367321;28;20485;-64
2023/10/20 23:53:16;;;;;;;9.38;3.78;;;;;;;;;;10364378;28;20052;-65
2023/10/20 23:58:17;;;;;;;9.00;3.70;;;;;;;;;;10350883;28;20056;-64
